createdAt,value
2022-12-01T00:01:02.252Z,28.13
2022-12-01T00:03:34.209Z,27.92
2022-12-01T00:06:06.229Z,29.95
2022-12-01T00:08:37.352Z,29.98
2022-12-01T00:11:05.978Z,28.70
2022-12-01T00:13:36.761Z,31.90
2022-12-01T00:16:19.803Z,30.92
2022-12-01T00:18:52.670Z,31.63
2022-12-01T00:21:25.993Z,30.27
2022-12-01T00:23:59.141Z,30.75
2022-12-01T00:26:30.137Z,32.28
2022-12-01T00:29:02.845Z,30.10
2022-12-01T00:31:35.305Z,29.80
2022-12-01T00:34:11.007Z,32.17
2022-12-01T00:36:41.809Z,34.78
2022-12-01T00:39:12.529Z,30.23
2022-12-01T00:41:42.354Z,27.13
2022-12-01T00:44:12.428Z,29.98
2022-12-01T00:46:44.827Z,31.90
2022-12-01T00:49:16.344Z,31.02
2022-12-01T00:51:46.169Z,28.48
2022-12-01T00:54:16.011Z,31.27
2022-12-01T00:56:45.825Z,31.70
2022-12-01T00:59:15.964Z,33.75
2022-12-01T01:01:48.564Z,30.00
2022-12-01T01:04:18.437Z,29.98
2022-12-01T01:06:48.551Z,31.50
2022-12-01T01:09:18.907Z,29.95
2022-12-01T01:11:48.726Z,32.13
2022-12-01T01:14:18.701Z,29.60
2022-12-01T01:16:51.661Z,31.20
2022-12-01T01:19:21.573Z,30.48
2022-12-01T01:21:51.401Z,30.30
2022-12-01T01:24:21.381Z,30.48
2022-12-01T01:26:51.253Z,30.33
2022-12-01T01:29:21.185Z,29.92
2022-12-01T01:31:53.608Z,33.97
2022-12-01T01:34:23.414Z,32.58
2022-12-01T01:36:53.494Z,30.70
2022-12-01T01:39:23.355Z,32.15
2022-12-01T01:41:53.235Z,32.85
2022-12-01T01:44:52.913Z,33.65
2022-12-01T01:47:29.948Z,33.08
2022-12-01T01:50:05.995Z,32.42
2022-12-01T01:52:36.739Z,34.13
2022-12-01T01:55:07.446Z,30.45
2022-12-01T01:57:37.941Z,29.13
2022-12-01T02:00:13.745Z,31.10
2022-12-01T02:02:49.132Z,30.27
2022-12-01T02:05:25.222Z,30.25
2022-12-01T02:07:58.259Z,32.35
2022-12-01T02:10:40.843Z,31.63
2022-12-01T02:13:19.322Z,30.40
2022-12-01T02:15:58.479Z,30.55
2022-12-01T02:18:41.192Z,33.42
2022-12-01T02:21:42.040Z,31.90
2022-12-01T02:25:00.679Z,31.05
2022-12-01T02:27:55.109Z,31.13
2022-12-01T02:30:39.758Z,32.00
2022-12-01T02:33:17.076Z,32.00
2022-12-01T02:35:52.040Z,32.33
2022-12-01T02:38:29.063Z,32.20
2022-12-01T02:41:06.327Z,31.70
2022-12-01T02:43:45.317Z,29.83
2022-12-01T02:46:25.242Z,32.22
2022-12-01T02:49:01.138Z,27.58
2022-12-01T02:51:34.782Z,30.20
2022-12-01T02:54:07.000Z,32.05
2022-12-01T02:56:36.833Z,29.23
2022-12-01T02:59:12.558Z,29.92
2022-12-01T03:02:06.380Z,28.27
2022-12-01T03:04:56.212Z,30.27
2022-12-01T03:07:50.815Z,30.55
2022-12-01T03:10:28.886Z,28.60
2022-12-01T03:13:12.767Z,28.80
2022-12-01T03:15:52.427Z,32.40
2022-12-01T03:18:35.209Z,30.90
2022-12-01T03:21:11.732Z,31.67
2022-12-01T03:23:47.148Z,28.25
2022-12-01T03:26:21.774Z,27.63
2022-12-01T03:28:58.169Z,27.02
2022-12-01T03:31:33.856Z,30.27
2022-12-01T03:34:12.630Z,28.95
2022-12-01T03:36:46.716Z,31.35
2022-12-01T03:39:24.018Z,29.20
2022-12-01T03:42:00.061Z,29.95
2022-12-01T03:44:36.109Z,29.67
2022-12-01T03:47:09.284Z,28.05
2022-12-01T03:49:42.905Z,32.13
2022-12-01T03:52:23.702Z,31.15
2022-12-01T03:55:07.883Z,28.45
2022-12-01T03:57:45.138Z,31.50
2022-12-01T04:00:18.539Z,31.70
2022-12-01T04:02:49.048Z,28.73
2022-12-01T04:05:25.314Z,29.48
2022-12-01T04:07:55.788Z,32.80
2022-12-01T04:10:25.838Z,30.08
2022-12-01T04:12:58.924Z,34.25
2022-12-01T04:15:29.921Z,32.60
2022-12-01T04:17:59.813Z,31.55
2022-12-01T04:20:32.212Z,33.33
2022-12-01T04:23:03.183Z,33.80
2022-12-01T04:25:33.041Z,33.53
2022-12-01T04:28:02.892Z,33.60
2022-12-01T04:30:32.714Z,33.10
2022-12-01T04:33:02.515Z,32.17
2022-12-01T04:35:34.911Z,35.22
2022-12-01T04:38:04.722Z,31.45
2022-12-01T04:40:34.555Z,30.15
2022-12-01T04:43:04.365Z,32.25
2022-12-01T04:45:34.147Z,32.40
2022-12-01T04:48:03.977Z,30.48
2022-12-01T04:50:36.450Z,31.38
2022-12-01T04:53:07.566Z,31.98
2022-12-01T04:55:41.075Z,32.28
2022-12-01T04:58:10.894Z,34.72
2022-12-01T05:00:41.022Z,32.30
2022-12-01T05:03:15.005Z,34.10
2022-12-01T05:05:47.767Z,30.85
2022-12-01T05:08:17.565Z,33.10
2022-12-01T05:10:47.490Z,32.95
2022-12-01T05:13:17.337Z,32.42
2022-12-01T05:15:47.170Z,34.22
2022-12-01T05:18:17.014Z,32.25
2022-12-01T05:20:58.739Z,31.77
2022-12-01T05:23:29.525Z,34.30
2022-12-01T05:25:59.829Z,33.60
2022-12-01T05:28:30.633Z,31.73
2022-12-01T05:31:01.155Z,32.22
2022-12-01T05:33:31.929Z,33.33
2022-12-01T05:36:04.358Z,34.78
2022-12-01T05:38:34.160Z,32.47
2022-12-01T05:41:03.998Z,34.63
2022-12-01T05:43:33.893Z,32.70
2022-12-01T05:46:03.793Z,32.25
2022-12-01T05:48:33.868Z,37.92
2022-12-01T05:51:11.822Z,37.47
2022-12-01T05:53:41.964Z,37.85
2022-12-01T05:56:12.266Z,38.67
2022-12-01T05:58:42.218Z,39.30
2022-12-01T06:01:12.059Z,38.30
2022-12-01T06:03:41.925Z,37.15
2022-12-01T06:06:14.342Z,37.28
2022-12-01T06:08:44.212Z,40.00
2022-12-01T06:11:14.216Z,39.33
2022-12-01T06:13:44.026Z,39.28
2022-12-01T06:16:13.910Z,38.83
2022-12-01T06:18:43.823Z,39.00
2022-12-01T06:21:16.248Z,42.97
2022-12-01T06:23:46.120Z,43.03
2022-12-01T06:26:15.947Z,40.38
2022-12-01T06:28:45.810Z,41.13
2022-12-01T06:31:16.617Z,39.10
2022-12-01T06:33:46.448Z,41.10
2022-12-01T06:36:19.193Z,40.35
2022-12-01T06:38:49.025Z,41.00
2022-12-01T06:41:18.863Z,42.70
2022-12-01T06:43:48.701Z,40.47
2022-12-01T06:46:18.670Z,43.58
2022-12-01T06:48:51.414Z,43.83
2022-12-01T06:51:23.878Z,43.90
2022-12-01T06:54:02.135Z,45.85
2022-12-01T06:56:35.028Z,47.40
2022-12-01T06:59:04.919Z,45.03
2022-12-01T07:01:35.272Z,44.90
2022-12-01T07:04:07.937Z,45.55
2022-12-01T07:06:40.403Z,45.60
2022-12-01T07:09:10.229Z,43.80
2022-12-01T07:11:40.051Z,45.97
2022-12-01T07:14:15.626Z,43.55
2022-12-01T07:16:45.513Z,46.28
2022-12-01T07:19:15.626Z,46.33
2022-12-01T07:21:48.078Z,44.00
2022-12-01T07:24:18.234Z,44.92
2022-12-01T07:26:48.238Z,44.00
2022-12-01T07:29:18.226Z,44.10
2022-12-01T07:31:48.050Z,43.42
2022-12-01T07:34:18.035Z,43.83
2022-12-01T07:36:50.450Z,43.55
2022-12-01T07:39:20.498Z,40.40
2022-12-01T07:41:50.912Z,41.75
2022-12-01T07:44:20.747Z,41.28
2022-12-01T07:46:50.609Z,43.28
2022-12-01T07:49:20.542Z,40.15
2022-12-01T07:51:53.047Z,41.75
2022-12-01T07:54:22.981Z,42.55
2022-12-01T07:56:53.053Z,42.75
2022-12-01T07:59:22.919Z,41.92
2022-12-01T08:01:52.823Z,44.10
2022-12-01T08:04:22.713Z,43.58
2022-12-01T08:06:55.163Z,41.53
2022-12-01T08:09:25.467Z,43.20
2022-12-01T08:11:55.307Z,43.15
2022-12-01T08:14:25.163Z,43.47
2022-12-01T08:16:55.007Z,46.30
2022-12-01T08:19:25.925Z,43.70
2022-12-01T08:21:58.365Z,45.92
2022-12-01T08:24:28.298Z,44.83
2022-12-01T08:26:58.179Z,48.53
2022-12-01T08:29:28.095Z,47.08
2022-12-01T08:32:00.607Z,42.17
2022-12-01T08:34:30.567Z,42.38
2022-12-01T08:37:02.989Z,42.10
2022-12-01T08:39:32.822Z,44.78
2022-12-01T08:42:02.962Z,43.42
2022-12-01T08:44:33.075Z,40.95
2022-12-01T08:47:02.933Z,40.72
2022-12-01T08:49:32.915Z,41.72
2022-12-01T08:52:05.385Z,37.65
2022-12-01T08:54:35.336Z,42.08
2022-12-01T08:57:05.182Z,38.10
2022-12-01T08:59:35.044Z,40.08
2022-12-01T09:02:07.045Z,37.15
2022-12-01T09:04:37.146Z,39.97
2022-12-01T09:07:15.141Z,37.60
2022-12-01T09:09:46.416Z,36.03
2022-12-01T09:12:16.815Z,39.30
2022-12-01T09:14:49.828Z,37.05
2022-12-01T09:17:20.607Z,38.13
2022-12-01T09:19:50.766Z,34.05
2022-12-01T09:22:23.456Z,37.15
2022-12-01T09:24:53.283Z,36.00
2022-12-01T09:27:23.230Z,37.50
2022-12-01T09:29:53.079Z,36.45
2022-12-01T09:32:22.917Z,34.53
2022-12-01T09:34:52.829Z,36.03
2022-12-01T09:37:25.250Z,36.90
2022-12-01T09:39:55.906Z,34.03
2022-12-01T09:42:32.195Z,36.25
2022-12-01T09:45:05.063Z,34.42
2022-12-01T09:47:40.121Z,36.38
2022-12-01T09:50:16.510Z,34.40
2022-12-01T09:52:53.210Z,34.72
2022-12-01T09:55:26.127Z,36.30
2022-12-01T09:57:58.762Z,36.28
2022-12-01T10:00:32.204Z,38.47
2022-12-01T10:03:08.506Z,34.95
2022-12-01T10:06:18.110Z,35.60
2022-12-01T10:08:45.234Z,35.83
2022-12-01T10:11:32.882Z,35.60
2022-12-01T10:14:03.335Z,32.50
2022-12-01T10:16:39.771Z,32.13
2022-12-01T10:19:17.629Z,34.38
2022-12-01T10:22:07.366Z,32.42
2022-12-01T10:24:56.601Z,33.13
2022-12-01T10:27:46.014Z,32.78
2022-12-01T10:30:28.119Z,32.47
2022-12-01T10:33:01.267Z,35.03
2022-12-01T10:35:37.172Z,35.13
2022-12-01T10:38:13.355Z,32.65
2022-12-01T10:40:47.432Z,34.38
2022-12-01T10:43:17.318Z,33.10
2022-12-01T10:45:48.028Z,31.27
2022-12-01T10:48:20.738Z,32.33
2022-12-01T10:50:53.001Z,34.50
2022-12-01T10:53:36.571Z,31.15
2022-12-01T10:56:17.345Z,31.35
2022-12-01T10:58:50.573Z,30.20
2022-12-01T11:01:25.701Z,30.65
2022-12-01T11:03:59.574Z,30.27
2022-12-01T11:06:32.620Z,31.37
2022-12-01T11:09:05.204Z,30.42
2022-12-01T11:11:40.613Z,29.73
2022-12-01T11:14:22.825Z,29.10
2022-12-01T11:16:55.030Z,29.45
2022-12-01T11:19:33.209Z,31.27
2022-12-01T11:22:08.826Z,31.10
2022-12-01T11:25:00.830Z,30.17
2022-12-01T11:27:38.855Z,31.38
2022-12-01T11:30:24.362Z,29.83
2022-12-01T11:32:58.277Z,29.05
2022-12-01T11:35:32.035Z,29.27
2022-12-01T11:38:28.728Z,29.55
2022-12-01T11:40:59.957Z,30.77
2022-12-01T11:43:36.653Z,27.48
2022-12-01T11:46:11.344Z,31.17
2022-12-01T11:51:30.237Z,31.08
2022-12-01T11:54:17.864Z,28.58
2022-12-01T11:57:17.349Z,29.60
2022-12-01T11:59:42.622Z,31.52
2022-12-01T12:02:30.578Z,30.65
2022-12-01T12:05:38.908Z,29.33
2022-12-01T12:08:20.299Z,27.45
2022-12-01T12:11:01.160Z,29.42
2022-12-01T12:14:00.110Z,29.88
2022-12-01T12:16:48.257Z,29.52
2022-12-01T12:20:06.727Z,29.27
2022-12-01T12:22:55.210Z,29.65
2022-12-01T12:25:34.738Z,28.48
2022-12-01T12:28:27.157Z,28.05
2022-12-01T12:31:08.426Z,29.10
2022-12-01T12:34:19.246Z,29.52
2022-12-01T12:37:02.613Z,30.73
2022-12-01T12:40:05.916Z,29.65
2022-12-01T12:42:48.860Z,26.27
2022-12-01T12:45:33.449Z,30.45
2022-12-01T12:48:18.416Z,28.92
2022-12-01T12:50:59.299Z,30.00
2022-12-01T12:53:34.697Z,30.42
2022-12-01T12:56:09.938Z,30.45
2022-12-01T12:58:44.698Z,31.58
